Bonus, Illinois
Current Conditions -  °F | °C
As of 2:54 AM on Thursday 23 Oct 2014 (Local Time) from KRFD Reporting Station
Clear Clear  
Wind Chill: 33°   Ceiling: Unl
Heat Index: 38°   Visibility: 9mi
Dew Point: 33°   Wind: 7mph
Humidity: 83%   Direction: 160°SSE
Pressure: 30.22"   Gusts: NA
Location:  42.267°N, 88.7326°W
Report Text: KRFD 230754Z 16006KT 9SM CLR 03/01 A3022 RMK AO2 SLP236 T00330006
Loading
Personal Weather Stations






























Interactive Weather Map
Tropical Storm Tracking
New forecast layout! Learn more

10-Day Weather Forecast

Advertisements
Track Severe Weather on mobile